createdAt,value
2018-09-25T00:01:42.164Z,7.03
2018-09-25T00:04:15.650Z,6.13
2018-09-25T00:06:49.218Z,5.57
2018-09-25T00:09:22.864Z,7.90
2018-09-25T00:11:56.395Z,4.63
2018-09-25T00:14:29.874Z,9.40
2018-09-25T00:17:03.295Z,9.70
2018-09-25T00:19:36.856Z,5.23
2018-09-25T00:22:10.250Z,3.97
2018-09-25T00:24:43.907Z,6.17
2018-09-25T00:27:17.361Z,6.60
2018-09-25T00:29:50.887Z,5.33
2018-09-25T00:32:24.390Z,5.33
2018-09-25T00:34:57.723Z,7.07
2018-09-25T00:37:31.225Z,3.40
2018-09-25T00:40:04.693Z,5.40
2018-09-25T00:42:38.278Z,6.53
2018-09-25T00:45:11.828Z,7.17
2018-09-25T00:47:45.250Z,3.70
2018-09-25T00:50:18.550Z,2.87
2018-09-25T00:52:51.994Z,6.00
2018-09-25T00:55:25.373Z,4.33
2018-09-25T00:57:58.650Z,4.27
2018-09-25T01:00:31.978Z,4.43
2018-09-25T01:03:05.562Z,3.73
2018-09-25T01:05:39.112Z,3.73
2018-09-25T01:08:12.591Z,3.87
2018-09-25T01:10:45.970Z,2.60
2018-09-25T01:13:19.628Z,6.23
2018-09-25T01:15:53.165Z,5.60
2018-09-25T01:18:26.662Z,6.70
2018-09-25T01:21:00.133Z,7.67
2018-09-25T01:23:33.458Z,4.50
2018-09-25T01:26:06.858Z,4.97
2018-09-25T01:28:40.391Z,8.83
2018-09-25T01:31:14.019Z,7.07
2018-09-25T01:33:47.670Z,6.77
2018-09-25T01:36:21.170Z,5.60
2018-09-25T01:38:54.714Z,2.57
2018-09-25T01:41:28.382Z,5.50
2018-09-25T01:44:01.783Z,7.43
2018-09-25T01:46:35.514Z,3.77
2018-09-25T01:49:09.046Z,6.60
2018-09-25T01:51:42.638Z,5.67
2018-09-25T01:54:16.334Z,4.30
2018-09-25T01:56:49.834Z,4.30
2018-09-25T01:59:23.487Z,4.50
2018-09-25T02:01:56.990Z,8.67
2018-09-25T02:04:30.358Z,5.13
2018-09-25T02:07:03.879Z,7.00
2018-09-25T02:09:37.450Z,6.33
2018-09-25T02:12:10.861Z,4.20
2018-09-25T02:14:44.285Z,7.27
2018-09-25T02:17:17.826Z,6.03
2018-09-25T02:19:51.323Z,7.17
2018-09-25T02:22:24.680Z,6.43
2018-09-25T02:24:58.190Z,5.97
2018-09-25T02:27:31.662Z,5.37
2018-09-25T02:30:05.194Z,9.50
2018-09-25T02:32:38.895Z,4.30
2018-09-25T02:35:12.349Z,10.43
2018-09-25T02:37:45.902Z,4.43
2018-09-25T02:40:19.422Z,5.40
2018-09-25T02:42:52.864Z,5.67
2018-09-25T02:45:26.232Z,7.57
2018-09-25T02:47:59.771Z,6.50
2018-09-25T02:50:33.346Z,4.40
2018-09-25T02:53:06.626Z,4.60
2018-09-25T02:55:40.257Z,5.10
2018-09-25T02:58:13.848Z,4.83
2018-09-25T03:00:47.386Z,4.50
2018-09-25T03:03:21.032Z,7.27
2018-09-25T03:05:54.518Z,5.00
2018-09-25T03:08:27.980Z,3.10
2018-09-25T03:11:01.519Z,5.57
2018-09-25T03:13:34.974Z,7.50
2018-09-25T03:16:08.338Z,6.30
2018-09-25T03:18:41.951Z,3.60
2018-09-25T03:21:15.510Z,5.83
2018-09-25T03:23:49.113Z,5.70
2018-09-25T03:26:22.528Z,5.53
2018-09-25T03:28:55.983Z,5.17
2018-09-25T03:31:29.357Z,3.97
2018-09-25T03:34:03.042Z,7.87
2018-09-25T03:36:36.598Z,6.47
2018-09-25T03:39:12.602Z,6.97
2018-09-25T03:41:46.270Z,3.43
2018-09-25T03:44:19.933Z,3.80
2018-09-25T03:46:53.418Z,6.37
2018-09-25T03:49:26.941Z,5.33
2018-09-25T03:52:00.313Z,7.47
2018-09-25T03:54:33.975Z,7.00
2018-09-25T03:57:07.466Z,4.47
2018-09-25T03:59:41.040Z,4.80
2018-09-25T04:02:14.721Z,4.40
2018-09-25T04:04:48.254Z,5.00
2018-09-25T04:07:21.838Z,5.67
2018-09-25T04:09:55.645Z,6.30
2018-09-25T04:12:29.303Z,6.93
2018-09-25T04:15:02.942Z,7.27
2018-09-25T04:17:36.502Z,9.93
2018-09-25T04:20:10.038Z,10.40
2018-09-25T04:22:43.546Z,7.87
2018-09-25T04:25:17.057Z,5.10
2018-09-25T04:27:50.565Z,7.83
2018-09-25T04:30:24.030Z,8.47
2018-09-25T04:32:57.545Z,6.30
2018-09-25T04:35:31.109Z,5.60
2018-09-25T04:38:04.644Z,6.40
2018-09-25T04:40:38.174Z,8.70
2018-09-25T04:43:11.697Z,10.07
2018-09-25T04:45:45.211Z,10.83
2018-09-25T04:48:18.673Z,7.40
2018-09-25T04:50:52.354Z,10.47
2018-09-25T04:53:25.977Z,10.37
2018-09-25T04:55:59.611Z,9.73
2018-09-25T04:58:32.990Z,7.40
2018-09-25T05:01:06.414Z,8.93
2018-09-25T05:03:39.848Z,7.13
2018-09-25T05:06:13.518Z,8.90
2018-09-25T05:08:47.227Z,13.37
2018-09-25T05:11:20.730Z,9.37
2018-09-25T05:13:54.462Z,14.23
2018-09-25T05:16:27.970Z,15.17
2018-09-25T05:19:01.595Z,7.73
2018-09-25T05:21:35.113Z,10.20
2018-09-25T05:24:08.453Z,8.80
2018-09-25T05:26:41.936Z,8.43
2018-09-25T05:29:15.450Z,12.13
2018-09-25T05:31:49.041Z,15.57
2018-09-25T05:34:22.539Z,7.70
2018-09-25T05:36:56.157Z,11.07
2018-09-25T05:39:29.701Z,10.40
2018-09-25T05:42:03.047Z,9.90
2018-09-25T05:44:36.408Z,7.10
2018-09-25T05:47:10.106Z,8.90
2018-09-25T05:49:43.554Z,11.30
2018-09-25T05:52:17.129Z,11.57
2018-09-25T05:54:50.495Z,9.47
2018-09-25T05:57:23.950Z,12.10
2018-09-25T05:59:57.558Z,9.13
2018-09-25T06:02:31.041Z,9.00
2018-09-25T06:05:04.698Z,7.60
2018-09-25T06:07:38.425Z,11.83
2018-09-25T06:10:12.106Z,12.13
2018-09-25T06:12:45.661Z,9.00
2018-09-25T06:15:19.156Z,12.10
2018-09-25T06:17:52.638Z,9.20
2018-09-25T06:20:26.298Z,13.67
2018-09-25T06:22:59.939Z,11.47
2018-09-25T06:25:33.392Z,6.67
2018-09-25T06:28:06.753Z,7.87
2018-09-25T06:30:40.288Z,8.00
2018-09-25T06:33:13.854Z,14.13
2018-09-25T06:35:47.454Z,15.07
2018-09-25T06:38:21.058Z,14.63
2018-09-25T06:40:54.669Z,14.50
2018-09-25T06:43:28.298Z,20.97
2018-09-25T06:46:01.641Z,14.77
2018-09-25T06:48:35.337Z,25.93
2018-09-25T06:51:09.022Z,22.23
2018-09-25T06:53:42.376Z,20.17
2018-09-25T06:56:15.965Z,17.33
2018-09-25T06:58:49.622Z,30.63
2018-09-25T07:01:23.170Z,22.50
2018-09-25T07:03:56.798Z,17.03
2018-09-25T07:06:30.504Z,15.13
2018-09-25T07:09:03.881Z,9.93
2018-09-25T07:11:37.501Z,15.03
2018-09-25T07:14:10.981Z,17.00
2018-09-25T07:16:44.359Z,16.57
2018-09-25T07:19:17.890Z,13.03
2018-09-25T07:21:51.440Z,19.40
2018-09-25T07:24:24.839Z,14.73
2018-09-25T07:26:58.350Z,14.17
2018-09-25T07:29:31.903Z,12.30
2018-09-25T07:32:05.513Z,12.73
2018-09-25T07:34:39.058Z,21.73
2018-09-25T07:37:12.543Z,14.87
2018-09-25T07:39:46.145Z,12.70
2018-09-25T07:42:19.580Z,8.37
2018-09-25T07:44:53.043Z,11.37
2018-09-25T07:47:26.529Z,11.77
2018-09-25T07:50:00.104Z,12.90
2018-09-25T07:52:33.656Z,7.03
2018-09-25T07:55:07.033Z,11.33
2018-09-25T07:57:40.565Z,7.83
2018-09-25T08:00:13.868Z,5.27
2018-09-25T08:02:47.346Z,6.27
2018-09-25T08:05:20.946Z,4.93
2018-09-25T08:07:54.466Z,8.63
2018-09-25T08:10:28.022Z,9.77
2018-09-25T08:13:01.538Z,6.23
2018-09-25T08:15:35.326Z,6.97
2018-09-25T08:18:08.557Z,8.67
2018-09-25T08:20:42.116Z,11.23
2018-09-25T08:23:15.670Z,5.13
2018-09-25T08:25:48.981Z,7.03
2018-09-25T08:28:22.550Z,8.23
2018-09-25T08:30:55.866Z,5.70
2018-09-25T08:33:29.363Z,6.93
2018-09-25T08:36:02.889Z,4.00
2018-09-25T08:38:36.422Z,5.53
2018-09-25T08:41:09.978Z,4.47
2018-09-25T08:43:43.362Z,4.57
2018-09-25T08:46:16.873Z,6.50
2018-09-25T08:48:50.278Z,4.50
2018-09-25T08:51:23.656Z,4.77
2018-09-25T08:53:56.990Z,4.33
2018-09-25T08:56:30.341Z,5.70
2018-09-25T08:59:03.845Z,7.33
2018-09-25T09:01:37.342Z,7.17
2018-09-25T09:04:11.250Z,4.13
2018-09-25T09:06:44.766Z,5.90
2018-09-25T09:09:18.224Z,4.17
2018-09-25T09:11:51.749Z,7.27
2018-09-25T09:14:25.213Z,7.73
2018-09-25T09:16:58.564Z,4.90
2018-09-25T09:19:32.195Z,3.67
2018-09-25T09:22:05.581Z,7.27
2018-09-25T09:24:39.242Z,3.90
2018-09-25T09:27:12.699Z,6.40
2018-09-25T09:29:46.149Z,7.13
2018-09-25T09:32:19.734Z,5.03
2018-09-25T09:34:53.295Z,5.87
2018-09-25T09:37:26.946Z,4.07
2018-09-25T09:40:00.464Z,7.07
2018-09-25T09:42:34.098Z,8.33
2018-09-25T09:45:07.698Z,5.27
2018-09-25T09:47:41.350Z,4.57
2018-09-25T09:50:15.068Z,5.87
2018-09-25T09:52:48.327Z,4.57
2018-09-25T09:55:21.910Z,4.03
2018-09-25T09:57:55.363Z,4.33
2018-09-25T10:00:28.829Z,2.93
2018-09-25T10:03:02.521Z,2.77
2018-09-25T10:05:35.934Z,3.40
2018-09-25T10:08:09.552Z,2.87
2018-09-25T10:10:43.106Z,4.53
2018-09-25T10:13:16.675Z,3.27
2018-09-25T10:15:50.005Z,3.90
2018-09-25T10:18:23.524Z,3.37
2018-09-25T10:20:57.108Z,3.03
2018-09-25T10:23:30.528Z,3.57
2018-09-25T10:26:04.226Z,4.53
2018-09-25T10:28:37.830Z,4.23
2018-09-25T10:31:11.198Z,4.17
2018-09-25T10:33:44.792Z,3.83
2018-09-25T10:36:18.313Z,5.87
2018-09-25T10:38:51.900Z,3.63
2018-09-25T10:41:25.377Z,4.53
2018-09-25T10:43:58.878Z,4.83
2018-09-25T10:46:32.343Z,2.80
2018-09-25T10:49:06.027Z,4.53
2018-09-25T10:51:39.538Z,4.60
2018-09-25T10:54:12.906Z,3.07
2018-09-25T10:56:46.609Z,3.73
2018-09-25T10:59:20.078Z,2.03
2018-09-25T11:01:53.526Z,4.90
2018-09-25T11:04:27.068Z,1.87
2018-09-25T11:07:00.638Z,3.47
2018-09-25T11:09:34.102Z,2.97
2018-09-25T11:12:07.583Z,3.03
2018-09-25T11:14:41.162Z,4.27
2018-09-25T11:17:14.614Z,1.90
2018-09-25T11:19:48.204Z,3.00
2018-09-25T11:22:21.643Z,2.93
2018-09-25T11:24:55.134Z,4.93
2018-09-25T11:27:28.627Z,6.17
2018-09-25T11:30:02.323Z,2.37
2018-09-25T11:32:35.833Z,2.60
2018-09-25T11:35:09.305Z,4.37
2018-09-25T11:37:42.565Z,1.57
2018-09-25T11:40:16.160Z,2.80
2018-09-25T11:42:49.638Z,3.67
2018-09-25T11:45:23.147Z,2.80
2018-09-25T11:47:56.585Z,7.97
2018-09-25T11:50:30.063Z,2.67
2018-09-25T11:53:03.386Z,4.43
2018-09-25T11:55:36.913Z,2.93
2018-09-25T11:58:10.660Z,3.87
2018-09-25T12:00:44.191Z,4.83
2018-09-25T12:03:17.806Z,3.50
2018-09-25T12:05:51.354Z,4.50
2018-09-25T12:08:24.859Z,2.13
2018-09-25T12:10:58.402Z,4.43
2018-09-25T12:13:31.959Z,3.33
2018-09-25T12:16:05.547Z,2.60
2018-09-25T12:18:38.905Z,3.97
2018-09-25T12:21:12.553Z,2.33
2018-09-25T12:23:46.083Z,4.07
2018-09-25T12:26:19.746Z,3.90
2018-09-25T12:28:53.120Z,2.27
2018-09-25T12:31:26.345Z,3.03
2018-09-25T12:33:59.737Z,3.20
2018-09-25T12:36:33.297Z,2.93
2018-09-25T12:39:06.690Z,4.97
2018-09-25T12:41:40.326Z,4.73
2018-09-25T12:44:13.882Z,4.63
2018-09-25T12:46:47.466Z,8.90
2018-09-25T12:49:20.913Z,4.73
2018-09-25T12:51:54.361Z,3.33
2018-09-25T12:54:27.881Z,3.43
2018-09-25T12:57:01.537Z,5.00
2018-09-25T12:59:35.101Z,4.03
2018-09-25T13:02:08.753Z,1.70
2018-09-25T13:04:42.270Z,4.70
2018-09-25T13:07:15.826Z,3.23
2018-09-25T13:09:49.435Z,2.70
2018-09-25T13:12:22.917Z,3.40
2018-09-25T13:14:56.194Z,3.47
2018-09-25T13:17:29.711Z,5.90
2018-09-25T13:20:03.265Z,4.50
2018-09-25T13:22:36.781Z,6.33
2018-09-25T13:25:10.451Z,4.47
2018-09-25T13:27:44.131Z,2.33
2018-09-25T13:30:17.732Z,5.60
2018-09-25T13:32:51.127Z,3.30
2018-09-25T13:35:24.620Z,4.93
2018-09-25T13:37:58.254Z,2.13
2018-09-25T13:40:31.966Z,5.67
2018-09-25T13:43:05.537Z,3.43
2018-09-25T13:45:39.110Z,3.13
2018-09-25T13:48:12.544Z,2.50
2018-09-25T13:50:46.134Z,4.27
2018-09-25T13:53:19.606Z,4.37
2018-09-25T13:55:53.026Z,4.30
2018-09-25T13:58:26.544Z,5.90
2018-09-25T14:01:00.094Z,4.47
2018-09-25T14:03:33.703Z,2.33
2018-09-25T14:06:07.162Z,2.10
2018-09-25T14:08:40.753Z,3.03
2018-09-25T14:11:14.173Z,2.53
2018-09-25T14:13:47.738Z,3.17
2018-09-25T14:16:21.204Z,1.93
2018-09-25T14:18:54.636Z,1.20
2018-09-25T14:21:27.991Z,5.47
2018-09-25T14:24:01.725Z,6.03
2018-09-25T14:26:35.257Z,2.53
2018-09-25T14:29:08.700Z,1.57
2018-09-25T14:31:42.274Z,3.40
2018-09-25T14:34:15.843Z,4.47
2018-09-25T14:36:49.600Z,2.57
2018-09-25T14:39:23.185Z,3.20
2018-09-25T14:41:56.863Z,3.63
2018-09-25T14:44:30.304Z,4.10
2018-09-25T14:47:03.905Z,4.33
2018-09-25T14:49:37.531Z,1.97
2018-09-25T14:52:11.041Z,4.53
2018-09-25T14:54:44.617Z,2.37
2018-09-25T14:57:18.260Z,3.87
2018-09-25T14:59:52.006Z,3.53
2018-09-25T15:02:25.630Z,2.33
2018-09-25T15:05:00.370Z,3.47
2018-09-25T15:07:33.813Z,2.73
2018-09-25T15:10:08.382Z,3.63
2018-09-25T15:12:41.783Z,2.73
2018-09-25T15:15:15.379Z,3.13
2018-09-25T15:17:49.146Z,2.90
2018-09-25T15:20:22.544Z,3.33
2018-09-25T15:22:56.243Z,3.67
2018-09-25T15:25:29.838Z,4.00
2018-09-25T15:28:03.241Z,2.60
2018-09-25T15:30:36.821Z,3.27
2018-09-25T15:33:10.301Z,2.57
2018-09-25T15:35:43.904Z,3.77
2018-09-25T15:38:17.602Z,3.60
2018-09-25T15:40:51.100Z,4.57
2018-09-25T15:43:24.602Z,3.07
2018-09-25T15:45:58.161Z,1.77
2018-09-25T15:48:31.705Z,2.47
2018-09-25T15:51:05.282Z,3.67
2018-09-25T15:53:38.639Z,4.47
2018-09-25T15:56:12.193Z,2.70
2018-09-25T15:58:45.621Z,5.00
2018-09-25T16:01:19.176Z,2.93
2018-09-25T16:03:52.758Z,5.20
2018-09-25T16:06:26.518Z,5.00
2018-09-25T16:09:00.563Z,5.30
2018-09-25T16:11:34.080Z,3.10
2018-09-25T16:14:07.770Z,2.73
2018-09-25T16:16:41.129Z,6.23
2018-09-25T16:19:14.713Z,3.93
2018-09-25T16:21:48.163Z,2.17
2018-09-25T16:24:21.769Z,2.90
2018-09-25T16:26:55.218Z,3.93
2018-09-25T16:29:28.846Z,2.27
2018-09-25T16:32:02.349Z,2.77
2018-09-25T16:34:35.918Z,4.20
2018-09-25T16:37:09.461Z,3.47
2018-09-25T16:39:43.057Z,2.57
2018-09-25T16:42:16.561Z,3.53
2018-09-25T16:44:50.218Z,2.87
2018-09-25T16:47:23.927Z,3.90
2018-09-25T16:49:57.449Z,2.47
2018-09-25T16:52:30.992Z,2.03
2018-09-25T16:55:04.421Z,2.33
2018-09-25T16:57:37.966Z,3.87
2018-09-25T17:00:11.555Z,3.53
2018-09-25T17:02:45.070Z,4.13
2018-09-25T17:05:19.634Z,3.60
2018-09-25T17:07:53.190Z,2.13
2018-09-25T17:10:26.730Z,2.03
2018-09-25T17:13:00.461Z,5.30
2018-09-25T17:15:33.944Z,2.80
2018-09-25T17:18:07.490Z,3.13
2018-09-25T17:20:42.202Z,5.07
2018-09-25T17:23:15.718Z,4.97
2018-09-25T17:25:50.291Z,1.67
2018-09-25T17:28:23.826Z,2.87
2018-09-25T17:30:57.570Z,4.67
2018-09-25T17:33:31.193Z,6.10
2018-09-25T17:36:04.554Z,2.63
2018-09-25T17:38:38.014Z,3.80
2018-09-25T17:41:12.421Z,2.77
2018-09-25T17:43:45.983Z,2.80
2018-09-25T17:46:19.669Z,2.10
2018-09-25T17:48:53.097Z,2.00
2018-09-25T17:51:27.646Z,3.20
2018-09-25T17:54:01.342Z,4.00
2018-09-25T17:56:34.946Z,2.53
2018-09-25T17:59:08.469Z,4.27
2018-09-25T18:01:42.042Z,3.77
2018-09-25T18:04:15.554Z,3.37
2018-09-25T18:06:49.099Z,4.13
2018-09-25T18:09:22.453Z,4.60
2018-09-25T18:11:57.275Z,5.37
2018-09-25T18:14:30.821Z,4.60
2018-09-25T18:17:04.277Z,2.53
2018-09-25T18:19:37.729Z,5.83
2018-09-25T18:22:12.230Z,3.03
2018-09-25T18:24:47.877Z,6.03
2018-09-25T18:27:21.248Z,7.07
2018-09-25T18:29:54.666Z,3.30
2018-09-25T18:32:28.163Z,6.53
2018-09-25T18:35:01.922Z,6.77
2018-09-25T18:37:35.394Z,2.37
2018-09-25T18:40:08.969Z,4.70
2018-09-25T18:42:42.285Z,5.83
2018-09-25T18:45:15.878Z,2.40
2018-09-25T18:47:49.429Z,6.83
2018-09-25T18:50:22.908Z,3.57
2018-09-25T18:52:56.545Z,3.30
2018-09-25T18:55:31.018Z,2.30
2018-09-25T18:58:04.328Z,3.97
2018-09-25T19:00:38.958Z,3.23
2018-09-25T19:03:12.520Z,2.03
2018-09-25T19:05:45.937Z,3.53
2018-09-25T19:08:19.634Z,2.50
2018-09-25T19:10:54.431Z,3.23
2018-09-25T19:13:28.062Z,4.53
2018-09-25T19:16:02.543Z,4.23
2018-09-25T19:18:37.142Z,4.37
2018-09-25T19:21:10.589Z,3.97
2018-09-25T19:23:44.254Z,5.33
2018-09-25T19:26:17.934Z,4.43
2018-09-25T19:28:51.506Z,6.47
2018-09-25T19:31:26.199Z,4.93
2018-09-25T19:34:00.837Z,5.73
2018-09-25T19:36:34.350Z,4.67
2018-09-25T19:39:07.926Z,4.53
2018-09-25T19:41:43.725Z,4.13
2018-09-25T19:44:17.100Z,3.17
2018-09-25T19:46:50.634Z,3.20
2018-09-25T19:49:24.169Z,3.53
2018-09-25T19:51:57.690Z,5.40
2018-09-25T19:54:31.191Z,4.57
2018-09-25T19:57:04.409Z,4.10
2018-09-25T19:59:38.198Z,3.73
2018-09-25T20:02:11.677Z,5.67
2018-09-25T20:04:45.310Z,2.83
2018-09-25T20:07:18.818Z,3.03
2018-09-25T20:09:52.351Z,3.77
2018-09-25T20:12:26.001Z,2.60
2018-09-25T20:14:59.390Z,3.43
2018-09-25T20:17:32.875Z,5.10
2018-09-25T20:20:06.306Z,7.57
2018-09-25T20:22:39.886Z,4.93
2018-09-25T20:25:13.433Z,11.63
2018-09-25T20:27:46.774Z,3.93
2018-09-25T20:30:20.337Z,5.83
2018-09-25T20:32:53.889Z,5.70
2018-09-25T20:35:27.477Z,6.07
2018-09-25T20:38:00.974Z,6.17
2018-09-25T20:40:34.497Z,4.83
2018-09-25T20:43:08.069Z,5.33
2018-09-25T20:45:41.582Z,7.23
2018-09-25T20:48:15.238Z,4.70
2018-09-25T20:50:48.656Z,5.03
2018-09-25T20:53:22.189Z,3.97
2018-09-25T20:55:55.890Z,3.60
2018-09-25T20:58:29.321Z,4.60
2018-09-25T21:01:02.836Z,5.80
2018-09-25T21:03:36.415Z,2.60
2018-09-25T21:06:10.062Z,9.00
2018-09-25T21:08:43.654Z,9.50
2018-09-25T21:11:17.347Z,5.40
2018-09-25T21:13:57.989Z,8.53
2018-09-25T21:16:31.689Z,5.77
2018-09-25T21:19:05.458Z,4.80
2018-09-25T21:21:39.122Z,7.97
2018-09-25T21:24:12.762Z,4.47
2018-09-25T21:26:46.374Z,5.73
2018-09-25T21:29:19.873Z,4.23
2018-09-25T21:31:53.370Z,3.67
2018-09-25T21:34:26.964Z,8.97
2018-09-25T21:37:00.474Z,6.33
2018-09-25T21:39:33.983Z,4.37
2018-09-25T21:42:07.718Z,5.53
2018-09-25T21:44:41.275Z,4.80
2018-09-25T21:47:14.862Z,7.10
2018-09-25T21:49:48.241Z,5.93
2018-09-25T21:52:22.011Z,3.50
2018-09-25T21:54:55.604Z,8.37
2018-09-25T21:57:29.137Z,3.17
2018-09-25T22:00:02.626Z,7.33
2018-09-25T22:02:36.202Z,7.20
2018-09-25T22:05:09.713Z,8.00
2018-09-25T22:07:43.259Z,6.87
2018-09-25T22:10:16.881Z,8.63
2018-09-25T22:12:50.330Z,4.73
2018-09-25T22:15:23.797Z,6.80
2018-09-25T22:17:57.480Z,8.67
2018-09-25T22:20:31.092Z,6.63
2018-09-25T22:23:04.501Z,8.10
2018-09-25T22:25:38.052Z,4.60
2018-09-25T22:28:11.701Z,4.87
2018-09-25T22:30:45.225Z,7.43
2018-09-25T22:33:18.786Z,5.87
2018-09-25T22:35:52.264Z,4.63
2018-09-25T22:38:25.631Z,6.63
2018-09-25T22:40:59.062Z,4.67
2018-09-25T22:43:32.549Z,3.90
2018-09-25T22:46:06.094Z,9.73
2018-09-25T22:48:39.662Z,5.40
2018-09-25T22:51:13.255Z,5.20
2018-09-25T22:53:46.616Z,3.67
2018-09-25T22:56:20.206Z,5.07
2018-09-25T22:58:53.531Z,3.87
2018-09-25T23:01:27.084Z,4.80
2018-09-25T23:04:00.628Z,4.43
2018-09-25T23:06:34.052Z,9.27
2018-09-25T23:09:07.786Z,4.20
2018-09-25T23:11:41.358Z,3.50
2018-09-25T23:14:14.906Z,5.87
2018-09-25T23:16:48.296Z,7.17
2018-09-25T23:19:21.840Z,9.63
2018-09-25T23:21:55.366Z,6.10
2018-09-25T23:24:28.725Z,5.37
2018-09-25T23:27:02.081Z,6.50
2018-09-25T23:29:35.511Z,11.00
2018-09-25T23:32:09.034Z,8.60
2018-09-25T23:34:42.620Z,6.13
2018-09-25T23:37:16.138Z,4.07
2018-09-25T23:39:54.430Z,5.03
2018-09-25T23:42:29.860Z,4.20
2018-09-25T23:45:21.520Z,4.87
2018-09-25T23:47:56.278Z,5.40
2018-09-25T23:50:59.071Z,4.07
2018-09-25T23:53:29.877Z,6.40
2018-09-25T23:56:13.789Z,3.33
2018-09-25T23:59:49.160Z,8.33
